Terminal Aerodrome Forecast
Issued by NWS

Home | Current Version | Previous Version | Text Only | Print | Product List | Glossary On
Versions: 1 2 3 4 5 6 7 8 9 10 11 12 13 14 15 16 17
000
FTUS46 KMTR 251100
TAFOAK
TAF
KOAK 251135Z 2512/2618 24006KT P6SM OVC012
     FM252000 27014KT P6SM BKN015
     FM260100 27012KT P6SM OVC010
     FM260600 27008KT P6SM OVC008
     FM261700 25008KT P6SM OVC012=

USA.gov is the U.S. government's official web portal to all federal, state and local government web resources and services.